createdAt,value
2023-07-03T00:00:50.030Z,92.42
2023-07-03T00:03:18.583Z,90.33
2023-07-03T00:05:49.219Z,89.66
2023-07-03T00:08:18.321Z,91.33
2023-07-03T00:10:46.705Z,91.70
2023-07-03T00:13:15.500Z,92.29
2023-07-03T00:15:43.590Z,92.90
2023-07-03T00:18:15.568Z,91.73
2023-07-03T00:20:43.940Z,89.54
2023-07-03T00:23:13.701Z,87.62
2023-07-03T00:25:42.836Z,86.87
2023-07-03T00:28:11.009Z,86.12
2023-07-03T00:30:39.068Z,85.34
2023-07-03T00:33:10.209Z,85.45
2023-07-03T00:35:42.489Z,83.91
2023-07-03T00:38:10.846Z,83.74
2023-07-03T00:40:40.478Z,83.05
2023-07-03T00:43:08.905Z,83.84
2023-07-03T00:45:38.380Z,85.96
2023-07-03T00:48:07.415Z,84.92
2023-07-03T00:50:36.550Z,85.65
2023-07-03T00:53:06.975Z,84.85
2023-07-03T00:55:39.251Z,86.68
2023-07-03T00:58:08.997Z,88.15
2023-07-03T01:00:42.044Z,87.63
2023-07-03T01:03:21.339Z,86.86
2023-07-03T01:05:51.250Z,87.37
2023-07-03T01:08:22.246Z,87.16
2023-07-03T01:10:51.949Z,86.56
2023-07-03T01:13:24.605Z,85.63
2023-07-03T01:15:53.260Z,85.88
2023-07-03T01:18:22.491Z,86.39
2023-07-03T01:20:55.028Z,86.23
2023-07-03T01:23:26.084Z,85.75
2023-07-03T01:25:57.370Z,87.82
2023-07-03T01:28:27.652Z,87.65
2023-07-03T01:30:57.827Z,87.20
2023-07-03T01:33:27.672Z,86.79
2023-07-03T01:35:57.800Z,87.81
2023-07-03T01:38:29.273Z,87.26
2023-07-03T01:41:00.261Z,85.88
2023-07-03T01:43:29.764Z,87.55
2023-07-03T01:45:58.001Z,89.08
2023-07-03T01:48:26.524Z,88.89
2023-07-03T01:50:54.584Z,88.25
2023-07-03T01:53:26.717Z,88.39
2023-07-03T01:55:59.001Z,87.43
2023-07-03T01:58:33.651Z,86.91
2023-07-03T02:01:06.145Z,87.46
2023-07-03T02:03:37.748Z,87.68
2023-07-03T02:06:09.644Z,87.57
2023-07-03T02:08:38.170Z,88.32
2023-07-03T02:11:15.225Z,87.56
2023-07-03T02:13:45.419Z,87.05
2023-07-03T02:16:17.219Z,87.21
2023-07-03T02:18:47.977Z,88.56
2023-07-03T02:21:18.016Z,88.55
2023-07-03T02:23:46.739Z,87.80
2023-07-03T02:26:15.646Z,86.01
2023-07-03T02:28:45.498Z,85.88
2023-07-03T02:31:14.165Z,85.45
2023-07-03T02:33:42.356Z,86.35
2023-07-03T02:36:11.157Z,86.12
2023-07-03T02:38:39.335Z,85.55
2023-07-03T02:41:07.747Z,84.86
2023-07-03T02:43:36.217Z,85.56
2023-07-03T02:46:10.297Z,86.01
2023-07-03T02:48:40.842Z,84.97
2023-07-03T02:51:09.720Z,85.44
2023-07-03T02:53:39.866Z,86.11
2023-07-03T02:56:13.150Z,86.14
2023-07-03T02:58:45.987Z,86.64
2023-07-03T03:01:20.060Z,87.03
2023-07-03T03:03:50.018Z,86.73
2023-07-03T03:06:18.665Z,88.07
2023-07-03T03:08:47.659Z,89.56
2023-07-03T03:11:17.340Z,91.37
2023-07-03T03:13:48.027Z,92.20
2023-07-03T03:16:17.695Z,92.68
2023-07-03T03:18:48.670Z,94.17
2023-07-03T03:21:18.368Z,93.97
2023-07-03T03:23:47.785Z,96.54
2023-07-03T03:26:15.982Z,97.96
2023-07-03T03:28:44.156Z,97.26
2023-07-03T03:31:12.252Z,100.00
2023-07-03T03:33:50.788Z,100.00
2023-07-03T03:36:19.547Z,100.00
2023-07-03T03:38:47.932Z,100.00
2023-07-03T03:41:16.684Z,100.00
2023-07-03T03:43:47.916Z,100.00
2023-07-03T03:46:17.560Z,100.00
2023-07-03T03:48:47.624Z,100.00
2023-07-03T03:51:17.631Z,100.00
2023-07-03T03:53:48.092Z,100.00
2023-07-03T03:56:17.051Z,100.00
2023-07-03T03:58:46.042Z,100.00
2023-07-03T04:01:14.212Z,100.00
2023-07-03T04:03:45.533Z,100.00
2023-07-03T04:06:17.693Z,100.00
2023-07-03T04:08:47.220Z,100.00
2023-07-03T04:11:15.492Z,100.00
2023-07-03T04:13:43.595Z,100.00
2023-07-03T04:16:12.511Z,100.00
2023-07-03T04:18:41.851Z,100.00
2023-07-03T04:21:10.040Z,100.00
2023-07-03T04:23:40.210Z,100.00
2023-07-03T04:26:10.031Z,100.00
2023-07-03T04:28:42.196Z,100.00
2023-07-03T04:31:11.712Z,100.00
2023-07-03T04:33:40.903Z,96.29
2023-07-03T04:36:10.000Z,92.46
2023-07-03T04:38:40.476Z,93.02
2023-07-03T04:41:10.136Z,91.89
2023-07-03T04:43:46.548Z,90.37
2023-07-03T04:46:14.798Z,89.14
2023-07-03T04:48:42.901Z,88.29
2023-07-03T04:51:12.125Z,89.42
2023-07-03T04:53:41.738Z,89.30
2023-07-03T04:56:12.142Z,88.97
2023-07-03T04:58:43.676Z,88.18
2023-07-03T05:01:13.201Z,88.05
2023-07-03T05:03:41.800Z,88.42
2023-07-03T05:06:09.769Z,87.84
2023-07-03T05:08:38.243Z,86.83
2023-07-03T05:11:07.515Z,86.85
2023-07-03T05:13:37.274Z,86.59
2023-07-03T05:16:05.608Z,87.98
2023-07-03T05:18:34.586Z,87.08
2023-07-03T05:21:03.438Z,85.12
2023-07-03T05:23:31.808Z,84.84
2023-07-03T05:26:01.765Z,83.79
2023-07-03T05:28:29.872Z,82.09
2023-07-03T05:31:00.864Z,81.38
2023-07-03T05:33:29.840Z,79.94
2023-07-03T05:36:01.180Z,80.33
2023-07-03T05:38:33.837Z,82.97
2023-07-03T05:41:02.977Z,82.94
2023-07-03T05:43:31.237Z,82.49
2023-07-03T05:46:00.740Z,80.85
2023-07-03T05:48:28.884Z,81.28
2023-07-03T05:50:57.057Z,82.05
2023-07-03T05:53:25.304Z,82.61
2023-07-03T05:55:56.810Z,82.78
2023-07-03T05:58:25.193Z,83.38
2023-07-03T06:00:54.084Z,82.19
2023-07-03T06:03:26.145Z,82.17
2023-07-03T06:05:55.528Z,84.73
2023-07-03T06:08:24.679Z,89.03
2023-07-03T06:10:53.902Z,89.68
2023-07-03T06:13:22.437Z,90.84
2023-07-03T06:15:50.881Z,92.71
2023-07-03T06:18:20.297Z,90.02
2023-07-03T06:20:50.453Z,82.62
2023-07-03T06:23:18.862Z,83.00
2023-07-03T06:25:48.231Z,80.99
2023-07-03T06:28:17.034Z,82.19
2023-07-03T06:30:51.192Z,82.98
2023-07-03T06:33:20.319Z,86.60
2023-07-03T06:35:52.610Z,84.67
2023-07-03T06:38:21.815Z,83.52
2023-07-03T06:40:56.888Z,84.69
2023-07-03T06:43:24.974Z,83.58
2023-07-03T06:45:55.271Z,81.35
2023-07-03T06:48:25.542Z,80.16
2023-07-03T06:51:03.934Z,81.50
2023-07-03T06:53:32.415Z,79.88
2023-07-03T06:56:01.049Z,76.61
2023-07-03T06:58:30.243Z,75.97
2023-07-03T07:00:58.573Z,72.57
2023-07-03T07:03:27.138Z,70.50
2023-07-03T07:05:56.049Z,75.24
2023-07-03T07:08:25.811Z,72.81
2023-07-03T07:10:54.142Z,66.62
2023-07-03T07:13:22.594Z,64.44
2023-07-03T07:15:51.462Z,65.35
2023-07-03T07:18:19.895Z,67.19
2023-07-03T07:20:48.153Z,68.64
2023-07-03T07:23:16.957Z,65.14
2023-07-03T07:25:57.618Z,64.49
2023-07-03T07:28:27.713Z,63.34
2023-07-03T07:30:56.393Z,63.64
2023-07-03T07:33:25.164Z,62.50
2023-07-03T07:35:54.756Z,63.47
2023-07-03T07:38:24.071Z,60.86
2023-07-03T07:41:02.972Z,56.38
2023-07-03T07:43:31.367Z,51.81
2023-07-03T07:45:59.929Z,53.46
2023-07-03T07:48:30.004Z,49.01
2023-07-03T07:51:01.488Z,45.26
2023-07-03T07:53:33.021Z,42.93
2023-07-03T07:56:02.642Z,46.14
2023-07-03T07:58:30.824Z,46.74
2023-07-03T08:01:00.738Z,53.56
2023-07-03T08:03:31.072Z,50.58
2023-07-03T08:06:01.010Z,45.72
2023-07-03T08:08:30.002Z,43.13
2023-07-03T08:11:01.057Z,38.56
2023-07-03T08:13:33.944Z,37.59
2023-07-03T08:16:03.660Z,39.86
2023-07-03T08:18:33.346Z,42.37
2023-07-03T08:21:03.152Z,43.57
2023-07-03T08:23:32.780Z,38.27
2023-07-03T08:26:02.748Z,37.36
2023-07-03T08:28:32.716Z,41.55
2023-07-03T08:31:02.049Z,41.48
2023-07-03T08:33:30.759Z,46.70
2023-07-03T08:38:35.372Z,44.74
2023-07-03T08:41:06.944Z,46.57
2023-07-03T08:43:43.562Z,45.94
2023-07-03T08:46:13.567Z,49.77
2023-07-03T08:48:46.563Z,44.67
2023-07-03T08:51:20.666Z,42.83
2023-07-03T08:53:54.496Z,44.59
2023-07-03T08:56:24.973Z,45.26
2023-07-03T08:58:57.296Z,46.58
2023-07-03T09:01:30.921Z,48.49
2023-07-03T09:04:06.232Z,45.65
2023-07-03T09:06:39.665Z,45.76
2023-07-03T09:09:12.704Z,42.96
2023-07-03T09:11:46.244Z,46.81
2023-07-03T09:14:20.581Z,50.70
2023-07-03T09:16:50.133Z,50.41
2023-07-03T09:19:23.169Z,45.71
2023-07-03T09:21:54.362Z,48.21
2023-07-03T09:24:26.003Z,50.13
2023-07-03T09:27:01.059Z,49.58
2023-07-03T09:29:34.706Z,47.74
2023-07-03T09:32:03.829Z,45.06
2023-07-03T09:35:00.908Z,43.15
2023-07-03T09:37:33.151Z,42.58
2023-07-03T09:40:04.081Z,44.25
2023-07-03T09:42:34.654Z,41.75
2023-07-03T09:45:05.474Z,40.84
2023-07-03T09:47:36.163Z,40.04
2023-07-03T09:50:07.430Z,41.19
2023-07-03T09:52:36.683Z,40.66
2023-07-03T09:55:07.062Z,37.23
2023-07-03T09:57:37.321Z,35.15
2023-07-03T10:00:16.716Z,34.26
2023-07-03T10:07:50.809Z,44.16
2023-07-03T10:12:59.622Z,46.55
2023-07-03T10:15:32.998Z,45.89
2023-07-03T10:18:03.712Z,46.18
2023-07-03T10:20:36.481Z,46.62
2023-07-03T10:23:06.492Z,46.54
2023-07-03T10:25:37.594Z,45.71
2023-07-03T10:28:11.090Z,46.00
2023-07-03T10:30:42.390Z,47.84
2023-07-03T10:33:13.425Z,47.96
2023-07-03T10:35:44.304Z,47.65
2023-07-03T10:38:20.399Z,46.94
2023-07-03T10:40:53.306Z,47.01
2023-07-03T10:43:22.802Z,47.44
2023-07-03T10:45:56.649Z,47.11
2023-07-03T10:48:27.429Z,49.78
2023-07-03T10:51:01.303Z,48.80
2023-07-03T10:53:33.435Z,48.33
2023-07-03T10:56:08.628Z,48.83
2023-07-03T10:58:42.080Z,48.90
2023-07-03T11:01:16.083Z,46.63
2023-07-03T11:04:00.662Z,43.32
2023-07-03T11:06:41.209Z,42.59
2023-07-03T11:09:15.152Z,43.50
2023-07-03T11:11:50.460Z,41.05
2023-07-03T11:14:21.315Z,40.70
2023-07-03T11:16:57.530Z,43.59
2023-07-03T11:24:52.409Z,37.13
2023-07-03T11:30:01.228Z,38.55
2023-07-03T11:32:35.028Z,42.56
2023-07-03T11:40:27.986Z,44.65
2023-07-03T11:46:02.400Z,36.67
2023-07-03T11:48:33.594Z,40.70
2023-07-03T11:51:03.058Z,43.28
2023-07-03T11:53:34.266Z,42.69
2023-07-03T11:56:03.875Z,40.37
2023-07-03T11:58:34.458Z,39.77
2023-07-03T12:01:21.853Z,40.05
2023-07-03T12:03:54.950Z,38.47
2023-07-03T12:06:42.281Z,35.74
2023-07-03T12:09:24.485Z,37.09
2023-07-03T12:12:08.498Z,38.91
2023-07-03T12:14:54.864Z,41.03
2023-07-03T12:17:24.653Z,38.59
2023-07-03T12:19:57.488Z,38.81
2023-07-03T12:22:27.633Z,32.91
2023-07-03T12:25:06.707Z,33.94
2023-07-03T12:27:35.129Z,33.71
2023-07-03T12:30:03.792Z,35.17
2023-07-03T12:32:36.788Z,35.56
2023-07-03T12:35:13.936Z,38.27
2023-07-03T12:37:46.253Z,39.67
2023-07-03T12:40:14.928Z,38.85
2023-07-03T12:42:43.035Z,39.34
2023-07-03T12:45:13.781Z,39.61
2023-07-03T12:47:42.050Z,39.13
2023-07-03T12:50:14.490Z,38.63
2023-07-03T12:52:43.344Z,42.70
2023-07-03T12:55:14.936Z,40.39
2023-07-03T12:57:45.702Z,40.00
2023-07-03T13:00:18.238Z,39.31
2023-07-03T13:02:47.201Z,33.96
2023-07-03T13:05:22.241Z,27.43
2023-07-03T13:07:51.102Z,25.40
2023-07-03T13:10:20.631Z,25.30
2023-07-03T13:13:04.561Z,28.64
2023-07-03T13:15:34.250Z,31.89
2023-07-03T13:18:06.703Z,35.03
2023-07-03T13:20:37.697Z,37.60
2023-07-03T13:23:07.389Z,36.44
2023-07-03T13:25:37.196Z,34.80
2023-07-03T13:28:07.176Z,36.19
2023-07-03T13:30:36.957Z,39.14
2023-07-03T13:33:06.175Z,39.85
2023-07-03T13:35:42.566Z,39.15
2023-07-03T13:38:19.530Z,35.72
2023-07-03T13:40:48.117Z,34.27
2023-07-03T13:43:19.252Z,33.34
2023-07-03T13:45:47.475Z,32.82
2023-07-03T13:48:17.780Z,29.71
2023-07-03T13:50:48.322Z,30.77
2023-07-03T13:53:16.038Z,29.30
2023-07-03T13:55:43.725Z,33.71
2023-07-03T13:58:13.905Z,32.02
2023-07-03T14:00:42.197Z,30.51
2023-07-03T14:03:11.282Z,33.40
2023-07-03T14:05:39.892Z,37.33
2023-07-03T14:08:09.750Z,38.68
2023-07-03T14:10:40.400Z,41.03
2023-07-03T14:13:10.226Z,33.18
2023-07-03T14:15:39.320Z,30.43
2023-07-03T14:18:09.142Z,27.95
2023-07-03T14:20:37.726Z,29.20
2023-07-03T14:23:06.904Z,26.32
2023-07-03T14:25:36.389Z,28.07
2023-07-03T14:28:05.558Z,29.08
2023-07-03T14:30:33.862Z,34.48
2023-07-03T14:33:01.750Z,39.37
2023-07-03T14:35:29.633Z,43.99
2023-07-03T14:37:57.788Z,45.97
2023-07-03T14:40:25.802Z,46.55
2023-07-03T14:42:56.353Z,44.77
2023-07-03T14:45:24.327Z,43.14
2023-07-03T14:47:54.367Z,44.35
2023-07-03T14:50:22.738Z,42.35
2023-07-03T14:52:51.118Z,41.37
2023-07-03T14:55:19.699Z,36.04
2023-07-03T14:57:47.996Z,37.24
2023-07-03T15:00:17.676Z,39.24
2023-07-03T15:02:50.123Z,40.08
2023-07-03T15:05:21.256Z,40.82
2023-07-03T15:07:53.255Z,41.01
2023-07-03T15:10:21.967Z,42.83
2023-07-03T15:12:50.390Z,42.76
2023-07-03T15:15:20.646Z,36.59
2023-07-03T15:17:52.207Z,37.84
2023-07-03T15:20:21.105Z,35.00
2023-07-03T15:22:52.609Z,32.22
2023-07-03T15:25:22.677Z,32.89
2023-07-03T15:27:52.385Z,35.00
2023-07-03T15:30:22.760Z,36.79
2023-07-03T15:32:55.090Z,37.17
2023-07-03T15:35:24.385Z,38.46
2023-07-03T15:37:54.575Z,38.12
2023-07-03T15:40:23.128Z,41.06
2023-07-03T15:42:51.984Z,41.99
2023-07-03T15:45:24.434Z,41.10
2023-07-03T15:47:54.713Z,41.33
2023-07-03T15:50:24.720Z,42.56
2023-07-03T15:52:56.199Z,39.66
2023-07-03T15:55:26.803Z,41.09
2023-07-03T15:57:55.093Z,36.49
2023-07-03T16:00:25.051Z,33.56
2023-07-03T16:02:53.392Z,33.20
2023-07-03T16:05:21.857Z,32.68
2023-07-03T16:07:50.497Z,31.95
2023-07-03T16:10:21.028Z,29.88
2023-07-03T16:12:52.130Z,29.97
2023-07-03T16:15:20.324Z,30.88
2023-07-03T16:17:50.553Z,30.49
2023-07-03T16:20:20.356Z,30.85
2023-07-03T16:22:49.956Z,32.85
2023-07-03T16:25:19.012Z,32.58
2023-07-03T16:27:47.947Z,33.10
2023-07-03T16:30:16.889Z,32.67
2023-07-03T16:32:49.384Z,34.35
2023-07-03T16:35:19.642Z,32.67
2023-07-03T16:37:48.465Z,34.79
2023-07-03T16:40:16.796Z,36.09
2023-07-03T16:42:45.276Z,39.19
2023-07-03T16:45:14.465Z,36.41
2023-07-03T16:47:42.787Z,35.36
2023-07-03T16:50:12.040Z,34.45
2023-07-03T16:52:49.213Z,34.65
2023-07-03T16:55:18.174Z,35.10
2023-07-03T16:57:46.388Z,37.26
2023-07-03T17:00:14.578Z,37.77
2023-07-03T17:02:44.084Z,36.90
2023-07-03T17:05:12.361Z,35.45
2023-07-03T17:07:44.272Z,36.08
2023-07-03T17:10:12.432Z,36.06
2023-07-03T17:12:40.827Z,37.48
2023-07-03T17:15:09.888Z,37.20
2023-07-03T17:17:41.716Z,37.58
2023-07-03T17:20:12.018Z,37.23
2023-07-03T17:22:47.280Z,38.35
2023-07-03T17:25:16.658Z,41.40
2023-07-03T17:27:45.749Z,44.40
2023-07-03T17:30:15.430Z,43.73
2023-07-03T17:32:46.697Z,40.30
2023-07-03T17:35:17.245Z,41.55
2023-07-03T17:37:47.373Z,45.44
2023-07-03T17:40:17.398Z,44.01
2023-07-03T17:42:46.452Z,43.18
2023-07-03T17:45:14.936Z,43.84
2023-07-03T17:47:43.195Z,44.82
2023-07-03T17:50:11.433Z,43.70
2023-07-03T17:52:39.703Z,42.99
2023-07-03T17:55:12.497Z,43.31
2023-07-03T17:57:40.782Z,42.51
2023-07-03T18:00:09.574Z,42.88
2023-07-03T18:02:37.890Z,44.69
2023-07-03T18:05:05.927Z,47.19
2023-07-03T18:07:34.224Z,48.64
2023-07-03T18:10:04.145Z,50.75
2023-07-03T18:12:33.865Z,51.30
2023-07-03T18:15:02.005Z,52.04
2023-07-03T18:17:29.755Z,54.63
2023-07-03T18:19:57.828Z,56.43
2023-07-03T18:22:25.500Z,55.20
2023-07-03T18:24:53.514Z,54.46
2023-07-03T18:27:21.645Z,56.07
2023-07-03T18:29:50.934Z,56.28
2023-07-03T18:32:19.025Z,58.91
2023-07-03T18:34:47.060Z,60.41
2023-07-03T18:37:15.066Z,61.07
2023-07-03T18:39:44.844Z,63.67
2023-07-03T18:42:13.671Z,65.91
2023-07-03T18:44:41.869Z,66.06
2023-07-03T18:47:13.691Z,67.75
2023-07-03T18:49:42.188Z,67.99
2023-07-03T18:52:12.507Z,68.08
2023-07-03T18:54:41.252Z,70.29
2023-07-03T18:57:09.619Z,72.04
2023-07-03T18:59:40.504Z,73.91
2023-07-03T19:02:09.649Z,75.53
2023-07-03T19:04:39.536Z,77.26
2023-07-03T19:07:08.312Z,78.92
2023-07-03T19:09:36.868Z,80.07
2023-07-03T19:12:07.411Z,80.83
2023-07-03T19:14:37.035Z,82.18
2023-07-03T19:17:06.393Z,83.76
2023-07-03T19:19:35.376Z,84.53
2023-07-03T19:22:07.345Z,85.99
2023-07-03T19:24:36.094Z,86.97
2023-07-03T19:27:04.640Z,87.85
2023-07-03T19:29:32.771Z,89.67
2023-07-03T19:32:01.200Z,90.91
2023-07-03T19:34:29.494Z,91.77
2023-07-03T19:36:57.495Z,93.51
2023-07-03T19:39:30.766Z,94.25
2023-07-03T19:41:59.368Z,95.27
2023-07-03T19:44:28.039Z,97.06
2023-07-03T19:46:57.007Z,98.74
2023-07-03T19:49:26.269Z,100.00
2023-07-03T19:51:54.401Z,100.00
2023-07-03T19:54:25.047Z,100.00
2023-07-03T19:56:57.374Z,100.00
2023-07-03T19:59:25.784Z,100.00
2023-07-03T20:01:54.961Z,100.00
2023-07-03T20:04:23.460Z,100.00
2023-07-03T20:06:51.769Z,100.00
2023-07-03T20:09:20.153Z,100.00
2023-07-03T20:11:48.989Z,100.00
2023-07-03T20:14:19.106Z,100.00
2023-07-03T20:16:48.104Z,100.00
2023-07-03T20:19:16.587Z,100.00
2023-07-03T20:21:44.839Z,100.00
2023-07-03T20:24:14.468Z,100.00
2023-07-03T20:26:42.723Z,100.00
2023-07-03T20:29:10.993Z,100.00
2023-07-03T20:31:40.178Z,100.00
2023-07-03T20:34:09.656Z,100.00
2023-07-03T20:36:39.240Z,100.00
2023-07-03T20:39:09.268Z,100.00
2023-07-03T20:41:37.262Z,100.00
2023-07-03T20:44:06.704Z,100.00
2023-07-03T20:46:35.210Z,100.00
2023-07-03T20:49:04.865Z,100.00
2023-07-03T20:51:35.574Z,100.00
2023-07-03T20:54:12.951Z,100.00
2023-07-03T20:56:41.658Z,100.00
2023-07-03T20:59:11.649Z,100.00
2023-07-03T21:01:40.511Z,100.00
2023-07-03T21:04:10.924Z,100.00
2023-07-03T21:06:40.667Z,100.00
2023-07-03T21:09:08.785Z,100.00
2023-07-03T21:11:40.451Z,100.00
2023-07-03T21:14:11.501Z,100.00
2023-07-03T21:16:40.529Z,100.00
2023-07-03T21:19:08.942Z,100.00
2023-07-03T21:21:39.050Z,100.00
2023-07-03T21:24:10.503Z,100.00
2023-07-03T21:26:39.276Z,100.00
2023-07-03T21:29:07.632Z,100.00
2023-07-03T21:31:37.100Z,100.00
2023-07-03T21:34:19.479Z,100.00
2023-07-03T21:36:50.070Z,100.00
2023-07-03T21:39:19.310Z,100.00
2023-07-03T21:41:50.640Z,100.00
2023-07-03T21:44:20.746Z,100.00
2023-07-03T21:46:48.925Z,100.00
2023-07-03T21:49:19.192Z,100.00
2023-07-03T21:51:50.106Z,100.00
2023-07-03T21:54:20.176Z,100.00
2023-07-03T21:56:50.710Z,100.00
2023-07-03T21:59:19.076Z,100.00
2023-07-03T22:01:51.591Z,100.00
2023-07-03T22:04:20.515Z,100.00
2023-07-03T22:06:51.328Z,100.00
2023-07-03T22:09:28.711Z,100.00
2023-07-03T22:12:07.631Z,100.00
2023-07-03T22:14:36.544Z,100.00
2023-07-03T22:17:04.279Z,100.00
2023-07-03T22:19:32.369Z,100.00
2023-07-03T22:22:05.710Z,100.00
2023-07-03T22:24:33.622Z,100.00
2023-07-03T22:27:01.559Z,100.00
2023-07-03T22:29:29.892Z,100.00
2023-07-03T22:32:01.414Z,100.00
2023-07-03T22:34:29.549Z,100.00
2023-07-03T22:36:57.454Z,100.00
2023-07-03T22:39:26.944Z,100.00
2023-07-03T22:41:56.665Z,100.00
2023-07-03T22:44:24.552Z,100.00
2023-07-03T22:46:52.847Z,100.00
2023-07-03T22:49:25.473Z,100.00
2023-07-03T22:51:54.243Z,100.00
2023-07-03T22:54:22.779Z,100.00
2023-07-03T22:56:51.701Z,100.00
2023-07-03T22:59:20.191Z,100.00
2023-07-03T23:01:49.554Z,100.00
2023-07-03T23:04:18.577Z,100.00
2023-07-03T23:06:48.520Z,100.00
2023-07-03T23:09:17.865Z,100.00
2023-07-03T23:11:45.935Z,100.00
2023-07-03T23:14:16.840Z,100.00
2023-07-03T23:16:46.761Z,100.00
2023-07-03T23:19:17.808Z,100.00
2023-07-03T23:21:51.580Z,100.00
2023-07-03T23:24:21.406Z,100.00
2023-07-03T23:26:51.722Z,100.00
2023-07-03T23:29:22.298Z,100.00
2023-07-03T23:31:50.594Z,100.00
2023-07-03T23:34:18.612Z,100.00
2023-07-03T23:36:49.826Z,100.00
2023-07-03T23:39:18.196Z,100.00
2023-07-03T23:41:47.550Z,100.00
2023-07-03T23:44:15.576Z,100.00
2023-07-03T23:46:45.152Z,100.00
2023-07-03T23:49:13.596Z,100.00
2023-07-03T23:51:42.144Z,100.00
2023-07-03T23:54:10.793Z,100.00
2023-07-03T23:56:40.729Z,100.00
2023-07-03T23:59:09.244Z,100.00
